sensor_id;sensor_type;location;lat;lon;timestamp;P1;durP1;ratioP1;P2;durP2;ratioP2
32130;SDS011;18639;50.716;7.086;2022-08-19T00:01:44;7.95;;;4.78;;
32130;SDS011;18639;50.716;7.086;2022-08-19T00:04:12;9.00;;;4.82;;
32130;SDS011;18639;50.716;7.086;2022-08-19T00:06:40;10.05;;;5.03;;
32130;SDS011;18639;50.716;7.086;2022-08-19T00:09:07;9.82;;;5.00;;
32130;SDS011;18639;50.716;7.086;2022-08-19T00:11:34;9.68;;;5.13;;
32130;SDS011;18639;50.716;7.086;2022-08-19T00:14:01;8.15;;;4.88;;
32130;SDS011;18639;50.716;7.086;2022-08-19T00:16:26;9.15;;;5.28;;
32130;SDS011;18639;50.716;7.086;2022-08-19T00:18:53;8.48;;;4.80;;
32130;SDS011;18639;50.716;7.086;2022-08-19T00:21:20;9.35;;;4.95;;
32130;SDS011;18639;50.716;7.086;2022-08-19T00:23:45;10.73;;;5.03;;
32130;SDS011;18639;50.716;7.086;2022-08-19T00:26:11;9.10;;;5.38;;
32130;SDS011;18639;50.716;7.086;2022-08-19T00:28:36;9.05;;;4.70;;
32130;SDS011;18639;50.716;7.086;2022-08-19T00:31:02;10.27;;;5.32;;
32130;SDS011;18639;50.716;7.086;2022-08-19T00:33:29;10.38;;;5.43;;
32130;SDS011;18639;50.716;7.086;2022-08-19T00:35:57;10.13;;;5.38;;
32130;SDS011;18639;50.716;7.086;2022-08-19T00:38:23;13.38;;;5.50;;
32130;SDS011;18639;50.716;7.086;2022-08-19T00:40:49;8.70;;;4.93;;
32130;SDS011;18639;50.716;7.086;2022-08-19T00:43:17;10.38;;;5.43;;
32130;SDS011;18639;50.716;7.086;2022-08-19T00:45:44;8.00;;;5.13;;
32130;SDS011;18639;50.716;7.086;2022-08-19T00:48:10;10.85;;;5.40;;
32130;SDS011;18639;50.716;7.086;2022-08-19T00:50:35;8.52;;;4.97;;
32130;SDS011;18639;50.716;7.086;2022-08-19T00:53:02;11.90;;;5.20;;
32130;SDS011;18639;50.716;7.086;2022-08-19T00:55:29;13.85;;;6.05;;
32130;SDS011;18639;50.716;7.086;2022-08-19T00:57:57;9.27;;;5.45;;
32130;SDS011;18639;50.716;7.086;2022-08-19T01:00:34;9.23;;;4.80;;
32130;SDS011;18639;50.716;7.086;2022-08-19T01:03:02;8.23;;;4.93;;
32130;SDS011;18639;50.716;7.086;2022-08-19T01:05:30;8.90;;;4.95;;
32130;SDS011;18639;50.716;7.086;2022-08-19T01:07:57;8.43;;;4.75;;
32130;SDS011;18639;50.716;7.086;2022-08-19T01:10:27;9.02;;;4.70;;
32130;SDS011;18639;50.716;7.086;2022-08-19T01:12:54;9.57;;;5.68;;
32130;SDS011;18639;50.716;7.086;2022-08-19T01:15:21;8.80;;;5.53;;
32130;SDS011;18639;50.716;7.086;2022-08-19T01:17:51;10.32;;;5.50;;
32130;SDS011;18639;50.716;7.086;2022-08-19T01:20:20;9.60;;;5.38;;
32130;SDS011;18639;50.716;7.086;2022-08-19T01:22:48;10.48;;;5.82;;
32130;SDS011;18639;50.716;7.086;2022-08-19T01:25:18;10.90;;;5.55;;
32130;SDS011;18639;50.716;7.086;2022-08-19T01:27:47;10.57;;;5.15;;
32130;SDS011;18639;50.716;7.086;2022-08-19T01:30:15;9.23;;;5.65;;
32130;SDS011;18639;50.716;7.086;2022-08-19T01:32:43;9.38;;;5.53;;
32130;SDS011;18639;50.716;7.086;2022-08-19T01:35:09;10.27;;;6.03;;
32130;SDS011;18639;50.716;7.086;2022-08-19T01:37:57;11.45;;;6.00;;
32130;SDS011;18639;50.716;7.086;2022-08-19T01:40:26;10.45;;;5.65;;
32130;SDS011;18639;50.716;7.086;2022-08-19T01:42:55;9.48;;;5.20;;
32130;SDS011;18639;50.716;7.086;2022-08-19T01:45:22;12.38;;;5.68;;
32130;SDS011;18639;50.716;7.086;2022-08-19T01:47:49;10.55;;;5.45;;
32130;SDS011;18639;50.716;7.086;2022-08-19T01:50:14;11.63;;;5.85;;
32130;SDS011;18639;50.716;7.086;2022-08-19T01:52:41;10.35;;;5.78;;
32130;SDS011;18639;50.716;7.086;2022-08-19T01:55:09;11.85;;;5.68;;
32130;SDS011;18639;50.716;7.086;2022-08-19T01:57:39;12.95;;;5.85;;
32130;SDS011;18639;50.716;7.086;2022-08-19T02:00:09;11.40;;;6.15;;
32130;SDS011;18639;50.716;7.086;2022-08-19T02:02:38;12.40;;;6.22;;
32130;SDS011;18639;50.716;7.086;2022-08-19T02:05:04;10.00;;;5.57;;
32130;SDS011;18639;50.716;7.086;2022-08-19T02:07:33;11.32;;;5.57;;
32130;SDS011;18639;50.716;7.086;2022-08-19T02:09:58;11.30;;;6.13;;
32130;SDS011;18639;50.716;7.086;2022-08-19T02:12:28;10.18;;;5.88;;
32130;SDS011;18639;50.716;7.086;2022-08-19T02:14:53;10.55;;;5.68;;
32130;SDS011;18639;50.716;7.086;2022-08-19T02:17:19;11.95;;;5.55;;
32130;SDS011;18639;50.716;7.086;2022-08-19T02:19:45;9.57;;;5.30;;
32130;SDS011;18639;50.716;7.086;2022-08-19T02:22:10;12.32;;;5.82;;
32130;SDS011;18639;50.716;7.086;2022-08-19T02:24:36;10.52;;;5.53;;
32130;SDS011;18639;50.716;7.086;2022-08-19T02:27:01;9.50;;;5.22;;
32130;SDS011;18639;50.716;7.086;2022-08-19T02:29:26;14.05;;;6.57;;
32130;SDS011;18639;50.716;7.086;2022-08-19T02:31:51;12.73;;;5.80;;
32130;SDS011;18639;50.716;7.086;2022-08-19T02:34:17;10.73;;;6.03;;
32130;SDS011;18639;50.716;7.086;2022-08-19T02:36:42;11.00;;;6.13;;
32130;SDS011;18639;50.716;7.086;2022-08-19T02:39:08;9.82;;;5.50;;
32130;SDS011;18639;50.716;7.086;2022-08-19T02:41:34;11.88;;;5.78;;
32130;SDS011;18639;50.716;7.086;2022-08-19T02:44:00;12.20;;;5.70;;
32130;SDS011;18639;50.716;7.086;2022-08-19T02:46:29;10.27;;;5.57;;
32130;SDS011;18639;50.716;7.086;2022-08-19T02:48:57;12.85;;;6.25;;
32130;SDS011;18639;50.716;7.086;2022-08-19T02:51:28;10.63;;;5.32;;
32130;SDS011;18639;50.716;7.086;2022-08-19T02:53:55;11.40;;;6.13;;
32130;SDS011;18639;50.716;7.086;2022-08-19T02:56:21;12.65;;;5.95;;
32130;SDS011;18639;50.716;7.086;2022-08-19T02:58:47;11.95;;;6.25;;
32130;SDS011;18639;50.716;7.086;2022-08-19T03:01:23;12.20;;;6.20;;
32130;SDS011;18639;50.716;7.086;2022-08-19T03:03:51;11.32;;;6.32;;
32130;SDS011;18639;50.716;7.086;2022-08-19T03:06:17;12.50;;;6.65;;
32130;SDS011;18639;50.716;7.086;2022-08-19T03:08:44;11.18;;;6.78;;
32130;SDS011;18639;50.716;7.086;2022-08-19T03:11:18;11.20;;;5.88;;
32130;SDS011;18639;50.716;7.086;2022-08-19T03:13:45;12.35;;;6.53;;
32130;SDS011;18639;50.716;7.086;2022-08-19T03:16:11;11.15;;;5.90;;
32130;SDS011;18639;50.716;7.086;2022-08-19T03:18:37;13.18;;;6.05;;
32130;SDS011;18639;50.716;7.086;2022-08-19T03:21:03;13.50;;;7.32;;
32130;SDS011;18639;50.716;7.086;2022-08-19T03:23:29;12.25;;;6.50;;
32130;SDS011;18639;50.716;7.086;2022-08-19T03:25:54;10.82;;;6.38;;
32130;SDS011;18639;50.716;7.086;2022-08-19T03:28:20;12.68;;;6.68;;
32130;SDS011;18639;50.716;7.086;2022-08-19T03:31:02;13.40;;;6.82;;
32130;SDS011;18639;50.716;7.086;2022-08-19T03:33:31;11.85;;;6.57;;
32130;SDS011;18639;50.716;7.086;2022-08-19T03:38:44;13.07;;;7.30;;
32130;SDS011;18639;50.716;7.086;2022-08-19T03:41:14;14.15;;;7.18;;
32130;SDS011;18639;50.716;7.086;2022-08-19T03:43:42;17.40;;;7.53;;
32130;SDS011;18639;50.716;7.086;2022-08-19T03:46:09;12.18;;;6.22;;
32130;SDS011;18639;50.716;7.086;2022-08-19T03:48:36;12.82;;;6.78;;
32130;SDS011;18639;50.716;7.086;2022-08-19T03:51:04;13.60;;;6.78;;
32130;SDS011;18639;50.716;7.086;2022-08-19T03:53:30;12.70;;;6.38;;
32130;SDS011;18639;50.716;7.086;2022-08-19T03:55:57;10.98;;;6.10;;
32130;SDS011;18639;50.716;7.086;2022-08-19T03:58:25;12.35;;;6.72;;
32130;SDS011;18639;50.716;7.086;2022-08-19T04:00:53;12.80;;;7.38;;
32130;SDS011;18639;50.716;7.086;2022-08-19T04:03:20;14.98;;;7.10;;
32130;SDS011;18639;50.716;7.086;2022-08-19T04:05:45;13.55;;;7.28;;
32130;SDS011;18639;50.716;7.086;2022-08-19T04:08:11;22.10;;;7.63;;
32130;SDS011;18639;50.716;7.086;2022-08-19T04:10:38;17.63;;;7.63;;
32130;SDS011;18639;50.716;7.086;2022-08-19T04:13:04;15.00;;;7.32;;
32130;SDS011;18639;50.716;7.086;2022-08-19T04:15:30;16.60;;;7.78;;
32130;SDS011;18639;50.716;7.086;2022-08-19T04:18:00;18.05;;;7.85;;
32130;SDS011;18639;50.716;7.086;2022-08-19T04:20:25;16.90;;;8.68;;
32130;SDS011;18639;50.716;7.086;2022-08-19T04:22:51;20.55;;;8.93;;
32130;SDS011;18639;50.716;7.086;2022-08-19T04:25:16;17.00;;;8.48;;
32130;SDS011;18639;50.716;7.086;2022-08-19T04:27:41;16.30;;;8.63;;
32130;SDS011;18639;50.716;7.086;2022-08-19T04:30:11;17.70;;;8.68;;
32130;SDS011;18639;50.716;7.086;2022-08-19T04:32:37;16.85;;;8.77;;
32130;SDS011;18639;50.716;7.086;2022-08-19T04:35:03;17.90;;;9.00;;
32130;SDS011;18639;50.716;7.086;2022-08-19T04:37:29;17.75;;;9.02;;
32130;SDS011;18639;50.716;7.086;2022-08-19T04:39:56;19.27;;;9.15;;
32130;SDS011;18639;50.716;7.086;2022-08-19T04:42:40;16.85;;;8.57;;
32130;SDS011;18639;50.716;7.086;2022-08-19T04:45:07;17.45;;;9.20;;
32130;SDS011;18639;50.716;7.086;2022-08-19T04:47:35;17.48;;;9.25;;
32130;SDS011;18639;50.716;7.086;2022-08-19T04:50:01;22.35;;;9.57;;
32130;SDS011;18639;50.716;7.086;2022-08-19T04:52:28;17.33;;;8.40;;
32130;SDS011;18639;50.716;7.086;2022-08-19T04:54:53;19.60;;;9.38;;
32130;SDS011;18639;50.716;7.086;2022-08-19T04:57:20;17.73;;;8.80;;
32130;SDS011;18639;50.716;7.086;2022-08-19T04:59:46;19.40;;;9.15;;
32130;SDS011;18639;50.716;7.086;2022-08-19T05:02:11;19.50;;;10.05;;
32130;SDS011;18639;50.716;7.086;2022-08-19T05:04:36;19.27;;;9.57;;
32130;SDS011;18639;50.716;7.086;2022-08-19T05:07:04;19.20;;;9.35;;
32130;SDS011;18639;50.716;7.086;2022-08-19T05:09:29;21.88;;;9.35;;
32130;SDS011;18639;50.716;7.086;2022-08-19T05:11:55;20.30;;;9.15;;
32130;SDS011;18639;50.716;7.086;2022-08-19T05:14:20;20.85;;;9.48;;
32130;SDS011;18639;50.716;7.086;2022-08-19T05:16:46;18.77;;;9.80;;
32130;SDS011;18639;50.716;7.086;2022-08-19T05:19:12;19.58;;;10.65;;
32130;SDS011;18639;50.716;7.086;2022-08-19T05:21:56;20.52;;;10.07;;
32130;SDS011;18639;50.716;7.086;2022-08-19T05:24:40;21.52;;;10.85;;
32130;SDS011;18639;50.716;7.086;2022-08-19T05:27:05;27.73;;;10.48;;
32130;SDS011;18639;50.716;7.086;2022-08-19T05:29:31;25.20;;;10.70;;
32130;SDS011;18639;50.716;7.086;2022-08-19T05:31:59;23.25;;;10.80;;
32130;SDS011;18639;50.716;7.086;2022-08-19T05:34:26;26.23;;;11.10;;
32130;SDS011;18639;50.716;7.086;2022-08-19T05:36:53;23.50;;;10.90;;
32130;SDS011;18639;50.716;7.086;2022-08-19T05:39:22;23.25;;;10.38;;
32130;SDS011;18639;50.716;7.086;2022-08-19T05:41:52;28.05;;;12.25;;
32130;SDS011;18639;50.716;7.086;2022-08-19T05:44:22;27.50;;;11.75;;
32130;SDS011;18639;50.716;7.086;2022-08-19T05:46:48;24.15;;;11.63;;
32130;SDS011;18639;50.716;7.086;2022-08-19T05:49:15;23.30;;;10.85;;
32130;SDS011;18639;50.716;7.086;2022-08-19T05:51:41;26.95;;;11.85;;
32130;SDS011;18639;50.716;7.086;2022-08-19T05:54:07;24.80;;;12.05;;
32130;SDS011;18639;50.716;7.086;2022-08-19T05:56:33;20.58;;;10.85;;
32130;SDS011;18639;50.716;7.086;2022-08-19T05:59:02;24.42;;;11.98;;
32130;SDS011;18639;50.716;7.086;2022-08-19T06:01:34;29.67;;;12.95;;
32130;SDS011;18639;50.716;7.086;2022-08-19T06:04:00;26.80;;;11.90;;
32130;SDS011;18639;50.716;7.086;2022-08-19T06:06:26;24.25;;;10.85;;
32130;SDS011;18639;50.716;7.086;2022-08-19T06:08:51;23.45;;;10.77;;
32130;SDS011;18639;50.716;7.086;2022-08-19T06:11:24;23.17;;;10.90;;
32130;SDS011;18639;50.716;7.086;2022-08-19T06:14:06;29.75;;;12.98;;
32130;SDS011;18639;50.716;7.086;2022-08-19T06:16:38;26.92;;;13.60;;
32130;SDS011;18639;50.716;7.086;2022-08-19T06:19:05;28.67;;;11.82;;
32130;SDS011;18639;50.716;7.086;2022-08-19T06:21:33;26.95;;;12.38;;
32130;SDS011;18639;50.716;7.086;2022-08-19T06:24:01;20.77;;;10.48;;
32130;SDS011;18639;50.716;7.086;2022-08-19T06:26:28;24.73;;;11.40;;
32130;SDS011;18639;50.716;7.086;2022-08-19T06:28:54;33.42;;;14.23;;
32130;SDS011;18639;50.716;7.086;2022-08-19T06:31:23;31.38;;;14.23;;
32130;SDS011;18639;50.716;7.086;2022-08-19T06:33:50;30.55;;;14.10;;
32130;SDS011;18639;50.716;7.086;2022-08-19T06:36:23;33.03;;;14.82;;
32130;SDS011;18639;50.716;7.086;2022-08-19T06:38:59;30.52;;;14.38;;
32130;SDS011;18639;50.716;7.086;2022-08-19T06:41:30;35.20;;;14.15;;
32130;SDS011;18639;50.716;7.086;2022-08-19T06:43:56;33.92;;;13.30;;
32130;SDS011;18639;50.716;7.086;2022-08-19T06:46:22;33.00;;;14.32;;
32130;SDS011;18639;50.716;7.086;2022-08-19T06:48:47;30.65;;;14.50;;
32130;SDS011;18639;50.716;7.086;2022-08-19T06:51:14;29.35;;;13.55;;
32130;SDS011;18639;50.716;7.086;2022-08-19T06:53:43;35.72;;;14.18;;
32130;SDS011;18639;50.716;7.086;2022-08-19T06:56:12;29.83;;;13.55;;
32130;SDS011;18639;50.716;7.086;2022-08-19T06:58:41;33.85;;;14.50;;
32130;SDS011;18639;50.716;7.086;2022-08-19T07:01:07;32.47;;;13.75;;
32130;SDS011;18639;50.716;7.086;2022-08-19T07:03:33;30.83;;;14.07;;
32130;SDS011;18639;50.716;7.086;2022-08-19T07:06:04;30.33;;;14.20;;
32130;SDS011;18639;50.716;7.086;2022-08-19T07:08:30;33.15;;;14.32;;
32130;SDS011;18639;50.716;7.086;2022-08-19T07:10:56;30.25;;;12.90;;
32130;SDS011;18639;50.716;7.086;2022-08-19T07:13:22;30.88;;;14.82;;
32130;SDS011;18639;50.716;7.086;2022-08-19T07:15:48;28.67;;;12.45;;
32130;SDS011;18639;50.716;7.086;2022-08-19T07:18:15;30.63;;;13.25;;
32130;SDS011;18639;50.716;7.086;2022-08-19T07:20:40;32.42;;;14.35;;
32130;SDS011;18639;50.716;7.086;2022-08-19T07:23:06;30.63;;;14.40;;
32130;SDS011;18639;50.716;7.086;2022-08-19T07:25:31;31.63;;;13.70;;
32130;SDS011;18639;50.716;7.086;2022-08-19T07:27:57;32.03;;;13.60;;
32130;SDS011;18639;50.716;7.086;2022-08-19T07:30:22;31.20;;;12.77;;
32130;SDS011;18639;50.716;7.086;2022-08-19T07:32:48;27.98;;;12.45;;
32130;SDS011;18639;50.716;7.086;2022-08-19T07:35:16;31.40;;;12.65;;
32130;SDS011;18639;50.716;7.086;2022-08-19T07:37:44;28.27;;;12.65;;
32130;SDS011;18639;50.716;7.086;2022-08-19T07:40:10;26.60;;;12.27;;
32130;SDS011;18639;50.716;7.086;2022-08-19T07:42:35;27.05;;;11.75;;
32130;SDS011;18639;50.716;7.086;2022-08-19T07:45:00;27.70;;;11.68;;
32130;SDS011;18639;50.716;7.086;2022-08-19T07:47:26;27.73;;;11.52;;
32130;SDS011;18639;50.716;7.086;2022-08-19T07:49:53;23.17;;;10.60;;
32130;SDS011;18639;50.716;7.086;2022-08-19T07:52:18;26.58;;;10.57;;
32130;SDS011;18639;50.716;7.086;2022-08-19T07:54:43;25.77;;;10.73;;
32130;SDS011;18639;50.716;7.086;2022-08-19T07:57:09;28.98;;;11.65;;
32130;SDS011;18639;50.716;7.086;2022-08-19T07:59:34;24.92;;;10.98;;
32130;SDS011;18639;50.716;7.086;2022-08-19T08:02:00;29.15;;;10.52;;
32130;SDS011;18639;50.716;7.086;2022-08-19T08:04:26;25.63;;;10.98;;
32130;SDS011;18639;50.716;7.086;2022-08-19T08:07:10;22.77;;;9.75;;
32130;SDS011;18639;50.716;7.086;2022-08-19T08:09:54;23.50;;;10.25;;
32130;SDS011;18639;50.716;7.086;2022-08-19T08:12:21;28.02;;;10.98;;
32130;SDS011;18639;50.716;7.086;2022-08-19T08:14:55;25.83;;;9.95;;
32130;SDS011;18639;50.716;7.086;2022-08-19T08:17:29;32.58;;;11.20;;
32130;SDS011;18639;50.716;7.086;2022-08-19T08:19:55;21.13;;;10.20;;
32130;SDS011;18639;50.716;7.086;2022-08-19T08:22:22;23.75;;;10.65;;
32130;SDS011;18639;50.716;7.086;2022-08-19T08:25:11;24.20;;;9.82;;
32130;SDS011;18639;50.716;7.086;2022-08-19T08:27:39;21.05;;;8.90;;
32130;SDS011;18639;50.716;7.086;2022-08-19T08:30:07;16.80;;;8.77;;
32130;SDS011;18639;50.716;7.086;2022-08-19T08:32:35;19.42;;;8.60;;
32130;SDS011;18639;50.716;7.086;2022-08-19T08:35:01;14.40;;;7.30;;
32130;SDS011;18639;50.716;7.086;2022-08-19T08:37:28;23.15;;;8.40;;
32130;SDS011;18639;50.716;7.086;2022-08-19T08:39:56;15.48;;;8.20;;
32130;SDS011;18639;50.716;7.086;2022-08-19T08:42:31;16.63;;;7.95;;
32130;SDS011;18639;50.716;7.086;2022-08-19T08:45:11;20.63;;;9.13;;
32130;SDS011;18639;50.716;7.086;2022-08-19T08:47:41;21.92;;;9.32;;
32130;SDS011;18639;50.716;7.086;2022-08-19T08:52:47;20.17;;;9.02;;
32130;SDS011;18639;50.716;7.086;2022-08-19T08:55:17;17.25;;;8.10;;
32130;SDS011;18639;50.716;7.086;2022-08-19T09:00:29;19.35;;;9.10;;
32130;SDS011;18639;50.716;7.086;2022-08-19T09:02:58;17.90;;;8.55;;
32130;SDS011;18639;50.716;7.086;2022-08-19T09:05:30;23.75;;;9.80;;
32130;SDS011;18639;50.716;7.086;2022-08-19T09:08:07;22.58;;;9.57;;
32130;SDS011;18639;50.716;7.086;2022-08-19T09:10:39;20.55;;;8.43;;
32130;SDS011;18639;50.716;7.086;2022-08-19T09:13:17;19.38;;;9.02;;
32130;SDS011;18639;50.716;7.086;2022-08-19T09:15:53;16.98;;;8.35;;
32130;SDS011;18639;50.716;7.086;2022-08-19T09:18:23;16.45;;;8.38;;
32130;SDS011;18639;50.716;7.086;2022-08-19T09:20:49;19.90;;;8.93;;
32130;SDS011;18639;50.716;7.086;2022-08-19T09:23:14;19.33;;;9.10;;
32130;SDS011;18639;50.716;7.086;2022-08-19T09:25:40;21.45;;;9.85;;
32130;SDS011;18639;50.716;7.086;2022-08-19T09:28:06;22.30;;;10.10;;
32130;SDS011;18639;50.716;7.086;2022-08-19T09:30:38;22.20;;;9.32;;
32130;SDS011;18639;50.716;7.086;2022-08-19T09:33:05;26.63;;;10.05;;
32130;SDS011;18639;50.716;7.086;2022-08-19T09:35:31;23.15;;;9.90;;
32130;SDS011;18639;50.716;7.086;2022-08-19T09:37:58;20.45;;;10.27;;
32130;SDS011;18639;50.716;7.086;2022-08-19T09:40:24;27.77;;;11.27;;
32130;SDS011;18639;50.716;7.086;2022-08-19T09:42:51;20.02;;;9.02;;
32130;SDS011;18639;50.716;7.086;2022-08-19T09:45:17;19.75;;;9.45;;
32130;SDS011;18639;50.716;7.086;2022-08-19T09:47:46;18.73;;;9.40;;
32130;SDS011;18639;50.716;7.086;2022-08-19T09:50:12;17.38;;;8.57;;
32130;SDS011;18639;50.716;7.086;2022-08-19T09:52:37;17.88;;;8.65;;
32130;SDS011;18639;50.716;7.086;2022-08-19T09:55:04;22.17;;;10.55;;
32130;SDS011;18639;50.716;7.086;2022-08-19T09:57:31;17.80;;;9.10;;
32130;SDS011;18639;50.716;7.086;2022-08-19T09:59:56;18.55;;;9.45;;
32130;SDS011;18639;50.716;7.086;2022-08-19T10:02:22;20.03;;;10.13;;
32130;SDS011;18639;50.716;7.086;2022-08-19T10:04:47;18.63;;;9.98;;
32130;SDS011;18639;50.716;7.086;2022-08-19T10:07:31;22.83;;;10.48;;
32130;SDS011;18639;50.716;7.086;2022-08-19T10:09:56;26.20;;;11.85;;
32130;SDS011;18639;50.716;7.086;2022-08-19T10:12:21;21.98;;;10.70;;
32130;SDS011;18639;50.716;7.086;2022-08-19T10:14:47;21.92;;;10.63;;
32130;SDS011;18639;50.716;7.086;2022-08-19T10:17:13;17.25;;;9.23;;
32130;SDS011;18639;50.716;7.086;2022-08-19T10:19:39;19.55;;;9.57;;
32130;SDS011;18639;50.716;7.086;2022-08-19T10:22:05;17.85;;;8.95;;
32130;SDS011;18639;50.716;7.086;2022-08-19T10:24:32;15.38;;;8.55;;
32130;SDS011;18639;50.716;7.086;2022-08-19T10:26:59;20.80;;;10.07;;
32130;SDS011;18639;50.716;7.086;2022-08-19T10:29:25;19.50;;;9.43;;
32130;SDS011;18639;50.716;7.086;2022-08-19T10:31:54;20.75;;;9.98;;
32130;SDS011;18639;50.716;7.086;2022-08-19T10:34:20;16.40;;;9.43;;
32130;SDS011;18639;50.716;7.086;2022-08-19T10:36:46;15.50;;;8.18;;
32130;SDS011;18639;50.716;7.086;2022-08-19T10:39:11;15.80;;;9.07;;
32130;SDS011;18639;50.716;7.086;2022-08-19T10:41:37;14.45;;;7.60;;
32130;SDS011;18639;50.716;7.086;2022-08-19T10:44:08;14.57;;;7.75;;
32130;SDS011;18639;50.716;7.086;2022-08-19T10:46:36;14.50;;;7.20;;
32130;SDS011;18639;50.716;7.086;2022-08-19T10:49:06;15.50;;;8.35;;
32130;SDS011;18639;50.716;7.086;2022-08-19T10:51:33;13.43;;;7.53;;
32130;SDS011;18639;50.716;7.086;2022-08-19T10:54:17;12.77;;;6.95;;
32130;SDS011;18639;50.716;7.086;2022-08-19T10:56:43;16.25;;;8.77;;
32130;SDS011;18639;50.716;7.086;2022-08-19T10:59:22;13.80;;;7.28;;
32130;SDS011;18639;50.716;7.086;2022-08-19T11:01:49;15.32;;;7.45;;
32130;SDS011;18639;50.716;7.086;2022-08-19T11:04:16;11.13;;;6.85;;
32130;SDS011;18639;50.716;7.086;2022-08-19T11:06:46;11.63;;;6.72;;
32130;SDS011;18639;50.716;7.086;2022-08-19T11:09:17;12.70;;;6.60;;
32130;SDS011;18639;50.716;7.086;2022-08-19T11:11:45;14.93;;;7.65;;
32130;SDS011;18639;50.716;7.086;2022-08-19T11:14:11;13.15;;;7.32;;
32130;SDS011;18639;50.716;7.086;2022-08-19T11:16:39;10.45;;;5.63;;
32130;SDS011;18639;50.716;7.086;2022-08-19T11:19:06;12.25;;;6.45;;
32130;SDS011;18639;50.716;7.086;2022-08-19T11:21:37;11.30;;;6.38;;
32130;SDS011;18639;50.716;7.086;2022-08-19T11:24:07;12.00;;;6.70;;
32130;SDS011;18639;50.716;7.086;2022-08-19T11:26:37;11.10;;;6.40;;
32130;SDS011;18639;50.716;7.086;2022-08-19T11:29:04;11.02;;;5.55;;
32130;SDS011;18639;50.716;7.086;2022-08-19T11:31:31;12.43;;;6.55;;
32130;SDS011;18639;50.716;7.086;2022-08-19T11:33:58;15.43;;;6.72;;
32130;SDS011;18639;50.716;7.086;2022-08-19T11:36:25;10.68;;;6.75;;
32130;SDS011;18639;50.716;7.086;2022-08-19T11:38:51;10.25;;;5.43;;
32130;SDS011;18639;50.716;7.086;2022-08-19T11:41:18;11.30;;;6.57;;
32130;SDS011;18639;50.716;7.086;2022-08-19T11:43:46;11.73;;;5.82;;
32130;SDS011;18639;50.716;7.086;2022-08-19T11:46:12;9.65;;;5.85;;
32130;SDS011;18639;50.716;7.086;2022-08-19T11:48:39;8.55;;;5.45;;
32130;SDS011;18639;50.716;7.086;2022-08-19T11:51:07;9.95;;;5.68;;
32130;SDS011;18639;50.716;7.086;2022-08-19T11:53:34;9.52;;;5.45;;
32130;SDS011;18639;50.716;7.086;2022-08-19T11:56:01;12.50;;;5.47;;
32130;SDS011;18639;50.716;7.086;2022-08-19T11:58:27;10.70;;;5.82;;
32130;SDS011;18639;50.716;7.086;2022-08-19T12:00:52;13.25;;;6.38;;
32130;SDS011;18639;50.716;7.086;2022-08-19T12:03:17;14.25;;;7.72;;
32130;SDS011;18639;50.716;7.086;2022-08-19T12:05:44;14.93;;;8.15;;
32130;SDS011;18639;50.716;7.086;2022-08-19T12:08:10;17.83;;;7.50;;
32130;SDS011;18639;50.716;7.086;2022-08-19T12:10:38;13.02;;;7.15;;
32130;SDS011;18639;50.716;7.086;2022-08-19T12:13:04;12.63;;;7.20;;
32130;SDS011;18639;50.716;7.086;2022-08-19T12:15:34;13.50;;;7.75;;
32130;SDS011;18639;50.716;7.086;2022-08-19T12:18:02;13.90;;;7.80;;
32130;SDS011;18639;50.716;7.086;2022-08-19T12:20:28;15.32;;;7.57;;
32130;SDS011;18639;50.716;7.086;2022-08-19T12:22:53;16.38;;;8.25;;
32130;SDS011;18639;50.716;7.086;2022-08-19T12:25:19;14.95;;;7.95;;
32130;SDS011;18639;50.716;7.086;2022-08-19T12:27:45;16.10;;;9.02;;
32130;SDS011;18639;50.716;7.086;2022-08-19T12:30:11;15.05;;;8.10;;
32130;SDS011;18639;50.716;7.086;2022-08-19T12:32:38;15.48;;;8.30;;
32130;SDS011;18639;50.716;7.086;2022-08-19T12:35:04;14.10;;;8.23;;
32130;SDS011;18639;50.716;7.086;2022-08-19T12:37:31;13.32;;;7.72;;
32130;SDS011;18639;50.716;7.086;2022-08-19T12:39:57;16.95;;;8.18;;
32130;SDS011;18639;50.716;7.086;2022-08-19T12:42:22;22.80;;;10.13;;
32130;SDS011;18639;50.716;7.086;2022-08-19T12:44:47;17.08;;;9.18;;
32130;SDS011;18639;50.716;7.086;2022-08-19T12:47:13;17.48;;;9.20;;
32130;SDS011;18639;50.716;7.086;2022-08-19T12:49:39;19.23;;;8.60;;
32130;SDS011;18639;50.716;7.086;2022-08-19T12:52:06;18.02;;;9.35;;
32130;SDS011;18639;50.716;7.086;2022-08-19T12:54:33;18.40;;;9.30;;
32130;SDS011;18639;50.716;7.086;2022-08-19T12:56:59;19.45;;;9.73;;
32130;SDS011;18639;50.716;7.086;2022-08-19T12:59:25;17.67;;;9.23;;
32130;SDS011;18639;50.716;7.086;2022-08-19T13:01:52;17.20;;;8.70;;
32130;SDS011;18639;50.716;7.086;2022-08-19T13:04:17;14.98;;;8.50;;
32130;SDS011;18639;50.716;7.086;2022-08-19T13:06:43;15.88;;;8.32;;
32130;SDS011;18639;50.716;7.086;2022-08-19T13:09:09;14.93;;;7.90;;
32130;SDS011;18639;50.716;7.086;2022-08-19T13:11:34;15.32;;;7.57;;
32130;SDS011;18639;50.716;7.086;2022-08-19T13:14:02;17.17;;;8.40;;
32130;SDS011;18639;50.716;7.086;2022-08-19T13:16:28;16.95;;;8.02;;
32130;SDS011;18639;50.716;7.086;2022-08-19T13:18:55;13.80;;;7.30;;
32130;SDS011;18639;50.716;7.086;2022-08-19T13:21:21;11.23;;;6.07;;
32130;SDS011;18639;50.716;7.086;2022-08-19T13:23:49;14.38;;;7.47;;
32130;SDS011;18639;50.716;7.086;2022-08-19T13:26:16;19.95;;;7.88;;
32130;SDS011;18639;50.716;7.086;2022-08-19T13:28:42;14.00;;;6.85;;
32130;SDS011;18639;50.716;7.086;2022-08-19T13:31:28;14.52;;;7.30;;
32130;SDS011;18639;50.716;7.086;2022-08-19T13:34:14;12.35;;;6.32;;
32130;SDS011;18639;50.716;7.086;2022-08-19T13:36:41;15.68;;;6.85;;
32130;SDS011;18639;50.716;7.086;2022-08-19T13:39:06;11.48;;;6.05;;
32130;SDS011;18639;50.716;7.086;2022-08-19T13:41:33;17.48;;;7.20;;
32130;SDS011;18639;50.716;7.086;2022-08-19T13:44:00;16.67;;;7.47;;
32130;SDS011;18639;50.716;7.086;2022-08-19T13:46:26;14.10;;;6.97;;
32130;SDS011;18639;50.716;7.086;2022-08-19T13:48:52;13.32;;;6.90;;
32130;SDS011;18639;50.716;7.086;2022-08-19T13:51:17;12.95;;;7.30;;
32130;SDS011;18639;50.716;7.086;2022-08-19T13:53:43;12.63;;;6.90;;
32130;SDS011;18639;50.716;7.086;2022-08-19T13:56:12;10.50;;;6.80;;
32130;SDS011;18639;50.716;7.086;2022-08-19T13:58:39;14.02;;;6.10;;
32130;SDS011;18639;50.716;7.086;2022-08-19T14:01:05;14.90;;;6.95;;
32130;SDS011;18639;50.716;7.086;2022-08-19T14:03:31;12.82;;;6.10;;
32130;SDS011;18639;50.716;7.086;2022-08-19T14:05:58;14.30;;;7.40;;
32130;SDS011;18639;50.716;7.086;2022-08-19T14:08:24;15.15;;;6.28;;
32130;SDS011;18639;50.716;7.086;2022-08-19T14:10:50;13.18;;;6.40;;
32130;SDS011;18639;50.716;7.086;2022-08-19T14:13:18;13.38;;;6.20;;
32130;SDS011;18639;50.716;7.086;2022-08-19T14:15:45;13.38;;;5.88;;
32130;SDS011;18639;50.716;7.086;2022-08-19T14:18:12;11.65;;;5.88;;
32130;SDS011;18639;50.716;7.086;2022-08-19T14:20:39;13.23;;;6.13;;
32130;SDS011;18639;50.716;7.086;2022-08-19T14:23:05;12.07;;;5.93;;
32130;SDS011;18639;50.716;7.086;2022-08-19T14:25:30;13.15;;;5.82;;
32130;SDS011;18639;50.716;7.086;2022-08-19T14:27:57;11.13;;;5.75;;
32130;SDS011;18639;50.716;7.086;2022-08-19T14:30:27;11.95;;;6.03;;
32130;SDS011;18639;50.716;7.086;2022-08-19T14:32:58;13.50;;;6.07;;
32130;SDS011;18639;50.716;7.086;2022-08-19T14:35:25;12.18;;;5.70;;
32130;SDS011;18639;50.716;7.086;2022-08-19T14:37:52;12.23;;;5.32;;
32130;SDS011;18639;50.716;7.086;2022-08-19T14:40:23;12.23;;;5.60;;
32130;SDS011;18639;50.716;7.086;2022-08-19T14:42:58;10.30;;;5.53;;
32130;SDS011;18639;50.716;7.086;2022-08-19T14:45:29;12.55;;;5.50;;